sensor_id;sensor_type;location;lat;lon;timestamp;temperature;humidity
24468;DHT22;12634;50.852;5.676;2024-01-07T00:01:23;2.10;99.90
24468;DHT22;12634;50.852;5.676;2024-01-07T00:03:55;2.10;99.90
24468;DHT22;12634;50.852;5.676;2024-01-07T00:06:22;2.10;99.90
24468;DHT22;12634;50.852;5.676;2024-01-07T00:08:49;2.10;99.90
24468;DHT22;12634;50.852;5.676;2024-01-07T00:11:16;2.10;99.90
24468;DHT22;12634;50.852;5.676;2024-01-07T00:13:43;2.00;99.90
24468;DHT22;12634;50.852;5.676;2024-01-07T00:16:10;2.00;99.90
24468;DHT22;12634;50.852;5.676;2024-01-07T00:18:38;2.10;99.90
24468;DHT22;12634;50.852;5.676;2024-01-07T00:21:06;2.10;99.90
24468;DHT22;12634;50.852;5.676;2024-01-07T00:23:33;2.10;99.90
24468;DHT22;12634;50.852;5.676;2024-01-07T00:26:01;2.10;99.90
24468;DHT22;12634;50.852;5.676;2024-01-07T00:28:29;2.10;99.90
24468;DHT22;12634;50.852;5.676;2024-01-07T00:30:56;2.10;99.90
24468;DHT22;12634;50.852;5.676;2024-01-07T00:33:23;2.10;99.90
24468;DHT22;12634;50.852;5.676;2024-01-07T00:35:50;2.10;99.90
24468;DHT22;12634;50.852;5.676;2024-01-07T00:38:19;2.10;99.90
24468;DHT22;12634;50.852;5.676;2024-01-07T00:40:46;2.10;99.90
24468;DHT22;12634;50.852;5.676;2024-01-07T00:43:13;2.20;99.90
24468;DHT22;12634;50.852;5.676;2024-01-07T00:45:40;2.20;99.90
24468;DHT22;12634;50.852;5.676;2024-01-07T00:48:07;2.10;99.90
24468;DHT22;12634;50.852;5.676;2024-01-07T00:50:35;2.10;99.90
24468;DHT22;12634;50.852;5.676;2024-01-07T00:53:02;2.00;99.90
24468;DHT22;12634;50.852;5.676;2024-01-07T00:55:30;2.10;99.90
24468;DHT22;12634;50.852;5.676;2024-01-07T00:57:57;2.10;99.90
24468;DHT22;12634;50.852;5.676;2024-01-07T01:00:25;2.10;99.90
24468;DHT22;12634;50.852;5.676;2024-01-07T01:02:53;2.10;99.90
24468;DHT22;12634;50.852;5.676;2024-01-07T01:05:20;2.10;99.90
24468;DHT22;12634;50.852;5.676;2024-01-07T01:07:47;2.10;99.90
24468;DHT22;12634;50.852;5.676;2024-01-07T01:10:14;2.00;99.90
24468;DHT22;12634;50.852;5.676;2024-01-07T01:12:44;2.00;99.90
24468;DHT22;12634;50.852;5.676;2024-01-07T01:15:11;2.00;99.90
24468;DHT22;12634;50.852;5.676;2024-01-07T01:17:38;2.00;99.90
24468;DHT22;12634;50.852;5.676;2024-01-07T01:20:06;2.00;99.90
24468;DHT22;12634;50.852;5.676;2024-01-07T01:22:34;2.00;99.90
24468;DHT22;12634;50.852;5.676;2024-01-07T01:25:01;1.90;99.90
24468;DHT22;12634;50.852;5.676;2024-01-07T01:27:29;1.90;99.90
24468;DHT22;12634;50.852;5.676;2024-01-07T01:29:57;1.90;99.90
24468;DHT22;12634;50.852;5.676;2024-01-07T01:32:24;1.90;99.90
24468;DHT22;12634;50.852;5.676;2024-01-07T01:34:51;1.90;99.90
24468;DHT22;12634;50.852;5.676;2024-01-07T01:37:19;1.80;99.90
24468;DHT22;12634;50.852;5.676;2024-01-07T01:39:46;1.80;99.90
24468;DHT22;12634;50.852;5.676;2024-01-07T01:42:13;1.80;99.90
24468;DHT22;12634;50.852;5.676;2024-01-07T01:44:40;1.70;99.90
24468;DHT22;12634;50.852;5.676;2024-01-07T01:47:10;1.70;99.90
24468;DHT22;12634;50.852;5.676;2024-01-07T01:49:39;1.70;99.90
24468;DHT22;12634;50.852;5.676;2024-01-07T01:52:06;1.60;99.90
24468;DHT22;12634;50.852;5.676;2024-01-07T01:54:34;1.60;99.90
24468;DHT22;12634;50.852;5.676;2024-01-07T01:57:02;1.60;99.90
24468;DHT22;12634;50.852;5.676;2024-01-07T01:59:29;1.60;99.90
24468;DHT22;12634;50.852;5.676;2024-01-07T02:01:57;1.60;99.90
24468;DHT22;12634;50.852;5.676;2024-01-07T02:04:25;1.60;99.90
24468;DHT22;12634;50.852;5.676;2024-01-07T02:06:53;1.60;99.90
24468;DHT22;12634;50.852;5.676;2024-01-07T02:09:20;1.60;99.90
24468;DHT22;12634;50.852;5.676;2024-01-07T02:12:00;1.60;99.90
24468;DHT22;12634;50.852;5.676;2024-01-07T02:14:27;1.70;99.90
24468;DHT22;12634;50.852;5.676;2024-01-07T02:16:55;1.60;99.90
24468;DHT22;12634;50.852;5.676;2024-01-07T02:19:22;1.60;99.90
24468;DHT22;12634;50.852;5.676;2024-01-07T02:21:52;1.60;99.90
24468;DHT22;12634;50.852;5.676;2024-01-07T02:24:22;1.60;99.90
24468;DHT22;12634;50.852;5.676;2024-01-07T02:26:49;1.60;99.90
24468;DHT22;12634;50.852;5.676;2024-01-07T02:29:16;1.70;99.90
24468;DHT22;12634;50.852;5.676;2024-01-07T02:31:43;1.70;99.90
24468;DHT22;12634;50.852;5.676;2024-01-07T02:34:10;1.70;99.90
24468;DHT22;12634;50.852;5.676;2024-01-07T02:36:39;1.70;99.90
24468;DHT22;12634;50.852;5.676;2024-01-07T02:39:06;1.70;99.90
24468;DHT22;12634;50.852;5.676;2024-01-07T02:41:34;1.70;99.90
24468;DHT22;12634;50.852;5.676;2024-01-07T02:44:01;1.70;99.90
24468;DHT22;12634;50.852;5.676;2024-01-07T02:46:29;1.70;99.90
24468;DHT22;12634;50.852;5.676;2024-01-07T02:48:56;1.70;99.90
24468;DHT22;12634;50.852;5.676;2024-01-07T02:51:24;1.70;99.90
24468;DHT22;12634;50.852;5.676;2024-01-07T02:53:51;1.80;99.90
24468;DHT22;12634;50.852;5.676;2024-01-07T02:56:18;1.70;99.90
24468;DHT22;12634;50.852;5.676;2024-01-07T02:58:46;1.80;99.90
24468;DHT22;12634;50.852;5.676;2024-01-07T03:01:13;1.70;99.90
24468;DHT22;12634;50.852;5.676;2024-01-07T03:03:41;1.70;99.90
24468;DHT22;12634;50.852;5.676;2024-01-07T03:06:08;1.70;99.90
24468;DHT22;12634;50.852;5.676;2024-01-07T03:08:35;1.80;99.90
24468;DHT22;12634;50.852;5.676;2024-01-07T03:11:05;1.70;99.90
24468;DHT22;12634;50.852;5.676;2024-01-07T03:13:32;1.80;99.90
24468;DHT22;12634;50.852;5.676;2024-01-07T03:16:01;1.80;99.90
24468;DHT22;12634;50.852;5.676;2024-01-07T03:18:28;1.80;99.90
24468;DHT22;12634;50.852;5.676;2024-01-07T03:20:55;1.80;99.90
24468;DHT22;12634;50.852;5.676;2024-01-07T03:23:22;1.80;99.90
24468;DHT22;12634;50.852;5.676;2024-01-07T03:25:49;1.80;99.90
24468;DHT22;12634;50.852;5.676;2024-01-07T03:28:16;1.80;99.90
24468;DHT22;12634;50.852;5.676;2024-01-07T03:30:44;1.80;99.90
24468;DHT22;12634;50.852;5.676;2024-01-07T03:33:12;1.90;99.90
24468;DHT22;12634;50.852;5.676;2024-01-07T03:35:40;1.90;99.90
24468;DHT22;12634;50.852;5.676;2024-01-07T03:38:07;1.90;99.90
24468;DHT22;12634;50.852;5.676;2024-01-07T03:40:34;1.90;99.90
24468;DHT22;12634;50.852;5.676;2024-01-07T03:43:01;1.90;99.90
24468;DHT22;12634;50.852;5.676;2024-01-07T03:45:28;1.80;99.90
24468;DHT22;12634;50.852;5.676;2024-01-07T03:47:56;1.90;99.90
24468;DHT22;12634;50.852;5.676;2024-01-07T03:50:25;1.80;99.90
24468;DHT22;12634;50.852;5.676;2024-01-07T03:52:52;1.80;99.90
24468;DHT22;12634;50.852;5.676;2024-01-07T03:55:19;1.90;99.90
24468;DHT22;12634;50.852;5.676;2024-01-07T03:57:46;1.80;99.90
24468;DHT22;12634;50.852;5.676;2024-01-07T04:00:15;1.90;99.90
24468;DHT22;12634;50.852;5.676;2024-01-07T04:02:42;1.80;99.90
24468;DHT22;12634;50.852;5.676;2024-01-07T04:05:09;1.80;99.90
24468;DHT22;12634;50.852;5.676;2024-01-07T04:07:38;1.90;99.90
24468;DHT22;12634;50.852;5.676;2024-01-07T04:10:06;1.90;99.90
24468;DHT22;12634;50.852;5.676;2024-01-07T04:12:33;1.90;99.90
24468;DHT22;12634;50.852;5.676;2024-01-07T04:15:00;1.90;99.90
24468;DHT22;12634;50.852;5.676;2024-01-07T04:17:27;1.90;99.90
24468;DHT22;12634;50.852;5.676;2024-01-07T04:19:55;1.90;99.90
24468;DHT22;12634;50.852;5.676;2024-01-07T04:22:22;1.90;99.90
24468;DHT22;12634;50.852;5.676;2024-01-07T04:24:51;1.90;99.90
24468;DHT22;12634;50.852;5.676;2024-01-07T04:27:18;1.90;99.90
24468;DHT22;12634;50.852;5.676;2024-01-07T04:29:45;2.00;99.90
24468;DHT22;12634;50.852;5.676;2024-01-07T04:32:12;1.90;99.90
24468;DHT22;12634;50.852;5.676;2024-01-07T04:34:39;2.00;99.90
24468;DHT22;12634;50.852;5.676;2024-01-07T04:37:06;2.00;99.90
24468;DHT22;12634;50.852;5.676;2024-01-07T04:39:34;2.00;99.90
24468;DHT22;12634;50.852;5.676;2024-01-07T04:42:03;2.00;99.90
24468;DHT22;12634;50.852;5.676;2024-01-07T04:44:30;2.00;99.90
24468;DHT22;12634;50.852;5.676;2024-01-07T04:46:57;2.10;99.90
24468;DHT22;12634;50.852;5.676;2024-01-07T04:49:24;2.10;99.90
24468;DHT22;12634;50.852;5.676;2024-01-07T04:51:51;2.00;99.90
24468;DHT22;12634;50.852;5.676;2024-01-07T04:54:19;2.00;99.90
24468;DHT22;12634;50.852;5.676;2024-01-07T04:56:46;2.00;99.90
24468;DHT22;12634;50.852;5.676;2024-01-07T04:59:14;2.00;99.90
24468;DHT22;12634;50.852;5.676;2024-01-07T05:01:41;1.90;99.90
24468;DHT22;12634;50.852;5.676;2024-01-07T05:04:09;1.90;99.90
24468;DHT22;12634;50.852;5.676;2024-01-07T05:06:36;1.90;99.90
24468;DHT22;12634;50.852;5.676;2024-01-07T05:09:03;1.90;99.90
24468;DHT22;12634;50.852;5.676;2024-01-07T05:11:30;1.90;99.90
24468;DHT22;12634;50.852;5.676;2024-01-07T05:13:58;2.00;99.90
24468;DHT22;12634;50.852;5.676;2024-01-07T05:16:27;1.90;99.90
24468;DHT22;12634;50.852;5.676;2024-01-07T05:18:55;1.90;99.90
24468;DHT22;12634;50.852;5.676;2024-01-07T05:21:22;1.90;99.90
24468;DHT22;12634;50.852;5.676;2024-01-07T05:23:49;1.90;99.90
24468;DHT22;12634;50.852;5.676;2024-01-07T05:26:16;1.80;99.90
24468;DHT22;12634;50.852;5.676;2024-01-07T05:28:43;1.80;99.90
24468;DHT22;12634;50.852;5.676;2024-01-07T05:31:14;1.70;99.90
24468;DHT22;12634;50.852;5.676;2024-01-07T05:33:43;1.70;99.90
24468;DHT22;12634;50.852;5.676;2024-01-07T05:36:11;1.70;99.90
24468;DHT22;12634;50.852;5.676;2024-01-07T05:38:38;1.80;99.90
24468;DHT22;12634;50.852;5.676;2024-01-07T05:41:05;1.80;99.90
24468;DHT22;12634;50.852;5.676;2024-01-07T05:43:32;1.80;99.90
24468;DHT22;12634;50.852;5.676;2024-01-07T05:45:59;1.80;99.90
24468;DHT22;12634;50.852;5.676;2024-01-07T05:48:29;1.80;99.90
24468;DHT22;12634;50.852;5.676;2024-01-07T05:50:57;1.90;99.90
24468;DHT22;12634;50.852;5.676;2024-01-07T05:53:25;1.90;99.90
24468;DHT22;12634;50.852;5.676;2024-01-07T05:55:52;1.90;99.90
24468;DHT22;12634;50.852;5.676;2024-01-07T05:58:19;1.90;99.90
24468;DHT22;12634;50.852;5.676;2024-01-07T06:00:46;1.80;99.90
24468;DHT22;12634;50.852;5.676;2024-01-07T06:03:14;1.80;99.90
24468;DHT22;12634;50.852;5.676;2024-01-07T06:05:41;1.90;99.90
24468;DHT22;12634;50.852;5.676;2024-01-07T06:08:10;1.80;99.90
24468;DHT22;12634;50.852;5.676;2024-01-07T06:10:39;1.80;99.90
24468;DHT22;12634;50.852;5.676;2024-01-07T06:13:06;1.80;99.90
24468;DHT22;12634;50.852;5.676;2024-01-07T06:15:33;1.80;99.90
24468;DHT22;12634;50.852;5.676;2024-01-07T06:18:00;1.90;99.90
24468;DHT22;12634;50.852;5.676;2024-01-07T06:20:28;1.80;99.90
24468;DHT22;12634;50.852;5.676;2024-01-07T06:22:55;1.80;99.90
24468;DHT22;12634;50.852;5.676;2024-01-07T06:25:23;1.80;99.90
24468;DHT22;12634;50.852;5.676;2024-01-07T06:27:52;1.80;99.90
24468;DHT22;12634;50.852;5.676;2024-01-07T06:30:19;1.80;99.90
24468;DHT22;12634;50.852;5.676;2024-01-07T06:32:46;1.80;99.90
24468;DHT22;12634;50.852;5.676;2024-01-07T06:35:14;1.80;99.90
24468;DHT22;12634;50.852;5.676;2024-01-07T06:37:41;1.80;99.90
24468;DHT22;12634;50.852;5.676;2024-01-07T06:40:09;1.80;99.90
24468;DHT22;12634;50.852;5.676;2024-01-07T06:42:39;1.80;99.90
24468;DHT22;12634;50.852;5.676;2024-01-07T06:45:07;1.80;99.90
24468;DHT22;12634;50.852;5.676;2024-01-07T06:47:34;1.80;99.90
24468;DHT22;12634;50.852;5.676;2024-01-07T06:50:02;1.80;99.90
24468;DHT22;12634;50.852;5.676;2024-01-07T06:52:29;1.80;99.90
24468;DHT22;12634;50.852;5.676;2024-01-07T06:54:57;1.80;99.90
24468;DHT22;12634;50.852;5.676;2024-01-07T06:57:24;1.80;99.90
24468;DHT22;12634;50.852;5.676;2024-01-07T06:59:52;1.80;99.90
24468;DHT22;12634;50.852;5.676;2024-01-07T07:02:20;1.80;99.90
24468;DHT22;12634;50.852;5.676;2024-01-07T07:04:48;1.70;99.90
24468;DHT22;12634;50.852;5.676;2024-01-07T07:07:18;1.70;99.90
24468;DHT22;12634;50.852;5.676;2024-01-07T07:09:45;1.70;99.90
24468;DHT22;12634;50.852;5.676;2024-01-07T07:12:12;1.80;99.90
24468;DHT22;12634;50.852;5.676;2024-01-07T07:14:39;1.70;99.90
24468;DHT22;12634;50.852;5.676;2024-01-07T07:17:08;1.80;99.90
24468;DHT22;12634;50.852;5.676;2024-01-07T07:19:35;1.70;99.90
24468;DHT22;12634;50.852;5.676;2024-01-07T07:22:03;1.70;99.90
24468;DHT22;12634;50.852;5.676;2024-01-07T07:24:30;1.70;99.90
24468;DHT22;12634;50.852;5.676;2024-01-07T07:26:57;1.70;99.90
24468;DHT22;12634;50.852;5.676;2024-01-07T07:29:24;1.70;99.90
24468;DHT22;12634;50.852;5.676;2024-01-07T07:31:51;1.70;99.90
24468;DHT22;12634;50.852;5.676;2024-01-07T07:34:20;1.70;99.90
24468;DHT22;12634;50.852;5.676;2024-01-07T07:36:47;1.70;99.90
24468;DHT22;12634;50.852;5.676;2024-01-07T07:39:14;1.60;99.90
24468;DHT22;12634;50.852;5.676;2024-01-07T07:41:42;1.60;99.90
24468;DHT22;12634;50.852;5.676;2024-01-07T07:44:09;1.60;99.90
24468;DHT22;12634;50.852;5.676;2024-01-07T07:46:36;1.60;99.90
24468;DHT22;12634;50.852;5.676;2024-01-07T07:49:03;1.60;99.90
24468;DHT22;12634;50.852;5.676;2024-01-07T07:51:32;1.60;99.90
24468;DHT22;12634;50.852;5.676;2024-01-07T07:53:59;1.60;99.90
24468;DHT22;12634;50.852;5.676;2024-01-07T07:56:26;1.60;99.90
24468;DHT22;12634;50.852;5.676;2024-01-07T07:58:54;1.60;99.90
24468;DHT22;12634;50.852;5.676;2024-01-07T08:01:21;1.60;99.90
24468;DHT22;12634;50.852;5.676;2024-01-07T08:03:48;1.60;99.90
24468;DHT22;12634;50.852;5.676;2024-01-07T08:06:16;1.60;99.90
24468;DHT22;12634;50.852;5.676;2024-01-07T08:08:44;1.60;99.90
24468;DHT22;12634;50.852;5.676;2024-01-07T08:11:11;1.60;99.90
24468;DHT22;12634;50.852;5.676;2024-01-07T08:13:41;1.60;99.90
24468;DHT22;12634;50.852;5.676;2024-01-07T08:16:08;1.50;99.90
24468;DHT22;12634;50.852;5.676;2024-01-07T08:18:35;1.50;99.90
24468;DHT22;12634;50.852;5.676;2024-01-07T08:21:03;1.50;99.90
24468;DHT22;12634;50.852;5.676;2024-01-07T08:23:30;1.50;99.90
24468;DHT22;12634;50.852;5.676;2024-01-07T08:25:58;1.50;99.90
24468;DHT22;12634;50.852;5.676;2024-01-07T08:28:26;1.50;99.90
24468;DHT22;12634;50.852;5.676;2024-01-07T08:30:53;1.40;99.90
24468;DHT22;12634;50.852;5.676;2024-01-07T08:33:22;1.50;99.90
24468;DHT22;12634;50.852;5.676;2024-01-07T08:35:50;1.50;99.90
24468;DHT22;12634;50.852;5.676;2024-01-07T08:38:17;1.50;99.90
24468;DHT22;12634;50.852;5.676;2024-01-07T08:40:44;1.40;99.90
24468;DHT22;12634;50.852;5.676;2024-01-07T08:43:12;1.40;99.90
24468;DHT22;12634;50.852;5.676;2024-01-07T08:45:40;1.40;99.90
24468;DHT22;12634;50.852;5.676;2024-01-07T08:48:07;1.30;99.90
24468;DHT22;12634;50.852;5.676;2024-01-07T08:50:35;1.30;99.90
24468;DHT22;12634;50.852;5.676;2024-01-07T08:53:02;1.40;99.90
24468;DHT22;12634;50.852;5.676;2024-01-07T08:55:30;1.40;99.90
24468;DHT22;12634;50.852;5.676;2024-01-07T08:57:57;1.40;99.90
24468;DHT22;12634;50.852;5.676;2024-01-07T09:00:26;1.40;99.90
24468;DHT22;12634;50.852;5.676;2024-01-07T09:02:57;1.40;99.90
24468;DHT22;12634;50.852;5.676;2024-01-07T09:05:24;1.40;99.90
24468;DHT22;12634;50.852;5.676;2024-01-07T09:07:51;1.40;99.90
24468;DHT22;12634;50.852;5.676;2024-01-07T09:10:18;1.40;99.90
24468;DHT22;12634;50.852;5.676;2024-01-07T09:12:46;1.40;99.90
24468;DHT22;12634;50.852;5.676;2024-01-07T09:15:18;1.40;99.90
24468;DHT22;12634;50.852;5.676;2024-01-07T09:17:47;1.30;99.90
24468;DHT22;12634;50.852;5.676;2024-01-07T09:20:14;1.30;99.90
24468;DHT22;12634;50.852;5.676;2024-01-07T09:22:41;1.30;99.90
24468;DHT22;12634;50.852;5.676;2024-01-07T09:25:09;1.30;99.90
24468;DHT22;12634;50.852;5.676;2024-01-07T09:27:37;1.20;99.90
24468;DHT22;12634;50.852;5.676;2024-01-07T09:30:05;1.20;99.90
24468;DHT22;12634;50.852;5.676;2024-01-07T09:32:32;1.20;99.90
24468;DHT22;12634;50.852;5.676;2024-01-07T09:35:01;1.20;99.90
24468;DHT22;12634;50.852;5.676;2024-01-07T09:37:28;1.30;99.90
24468;DHT22;12634;50.852;5.676;2024-01-07T09:39:55;1.20;99.90
24468;DHT22;12634;50.852;5.676;2024-01-07T09:42:23;1.20;99.90
24468;DHT22;12634;50.852;5.676;2024-01-07T09:44:50;1.20;99.90
24468;DHT22;12634;50.852;5.676;2024-01-07T09:47:18;1.20;99.90
24468;DHT22;12634;50.852;5.676;2024-01-07T09:49:46;1.20;99.90
24468;DHT22;12634;50.852;5.676;2024-01-07T09:52:15;1.20;99.90
24468;DHT22;12634;50.852;5.676;2024-01-07T09:54:48;1.20;99.90
24468;DHT22;12634;50.852;5.676;2024-01-07T09:57:16;1.20;99.90
24468;DHT22;12634;50.852;5.676;2024-01-07T09:59:43;1.20;99.90
24468;DHT22;12634;50.852;5.676;2024-01-07T10:02:12;1.20;99.90
24468;DHT22;12634;50.852;5.676;2024-01-07T10:04:40;1.10;99.90
24468;DHT22;12634;50.852;5.676;2024-01-07T10:07:08;1.20;99.90
24468;DHT22;12634;50.852;5.676;2024-01-07T10:09:37;1.10;99.90
24468;DHT22;12634;50.852;5.676;2024-01-07T10:12:08;1.10;99.90
24468;DHT22;12634;50.852;5.676;2024-01-07T10:14:35;1.20;99.90
24468;DHT22;12634;50.852;5.676;2024-01-07T10:17:03;1.20;99.90
24468;DHT22;12634;50.852;5.676;2024-01-07T10:19:35;1.20;99.90
24468;DHT22;12634;50.852;5.676;2024-01-07T10:22:04;1.20;99.90
24468;DHT22;12634;50.852;5.676;2024-01-07T10:24:37;1.30;99.90
24468;DHT22;12634;50.852;5.676;2024-01-07T10:27:05;1.40;99.90
24468;DHT22;12634;50.852;5.676;2024-01-07T10:29:33;1.30;99.90
24468;DHT22;12634;50.852;5.676;2024-01-07T10:32:00;1.20;99.90
24468;DHT22;12634;50.852;5.676;2024-01-07T10:34:31;1.20;99.90
24468;DHT22;12634;50.852;5.676;2024-01-07T10:36:59;1.20;99.90
24468;DHT22;12634;50.852;5.676;2024-01-07T10:39:27;1.30;99.90
24468;DHT22;12634;50.852;5.676;2024-01-07T10:41:56;1.20;99.90
24468;DHT22;12634;50.852;5.676;2024-01-07T10:44:26;1.30;99.90
24468;DHT22;12634;50.852;5.676;2024-01-07T10:46:54;1.20;99.90
24468;DHT22;12634;50.852;5.676;2024-01-07T10:49:23;1.20;99.90
24468;DHT22;12634;50.852;5.676;2024-01-07T10:52:01;1.20;99.90
24468;DHT22;12634;50.852;5.676;2024-01-07T10:54:30;1.20;99.90
24468;DHT22;12634;50.852;5.676;2024-01-07T10:57:07;1.20;99.90
24468;DHT22;12634;50.852;5.676;2024-01-07T10:59:34;1.20;99.90
24468;DHT22;12634;50.852;5.676;2024-01-07T11:02:03;1.20;99.90
24468;DHT22;12634;50.852;5.676;2024-01-07T11:04:37;1.10;99.90
24468;DHT22;12634;50.852;5.676;2024-01-07T11:07:16;1.20;99.90
24468;DHT22;12634;50.852;5.676;2024-01-07T11:09:54;1.10;99.90
24468;DHT22;12634;50.852;5.676;2024-01-07T11:12:24;1.20;99.90
24468;DHT22;12634;50.852;5.676;2024-01-07T11:14:51;1.10;99.90
24468;DHT22;12634;50.852;5.676;2024-01-07T11:17:40;1.10;99.90
24468;DHT22;12634;50.852;5.676;2024-01-07T11:20:17;1.10;99.90
24468;DHT22;12634;50.852;5.676;2024-01-07T11:22:45;1.10;99.90
24468;DHT22;12634;50.852;5.676;2024-01-07T11:25:29;1.10;99.90
24468;DHT22;12634;50.852;5.676;2024-01-07T11:27:58;1.10;99.90
24468;DHT22;12634;50.852;5.676;2024-01-07T11:30:27;1.10;99.90
24468;DHT22;12634;50.852;5.676;2024-01-07T11:32:58;1.10;99.90
24468;DHT22;12634;50.852;5.676;2024-01-07T11:35:56;1.10;99.90
24468;DHT22;12634;50.852;5.676;2024-01-07T11:38:24;1.10;99.90
24468;DHT22;12634;50.852;5.676;2024-01-07T11:40:51;1.00;99.90
24468;DHT22;12634;50.852;5.676;2024-01-07T11:43:20;1.00;99.90
24468;DHT22;12634;50.852;5.676;2024-01-07T11:45:49;1.10;99.90
24468;DHT22;12634;50.852;5.676;2024-01-07T11:48:17;1.00;99.90
24468;DHT22;12634;50.852;5.676;2024-01-07T11:50:44;1.00;99.90
24468;DHT22;12634;50.852;5.676;2024-01-07T11:53:11;1.10;99.90
24468;DHT22;12634;50.852;5.676;2024-01-07T11:55:39;1.10;99.90
24468;DHT22;12634;50.852;5.676;2024-01-07T11:58:06;1.10;99.90
24468;DHT22;12634;50.852;5.676;2024-01-07T12:00:35;1.10;99.90
24468;DHT22;12634;50.852;5.676;2024-01-07T12:03:03;1.20;99.90
24468;DHT22;12634;50.852;5.676;2024-01-07T12:05:30;1.10;99.90
24468;DHT22;12634;50.852;5.676;2024-01-07T12:07:59;1.00;99.90
24468;DHT22;12634;50.852;5.676;2024-01-07T12:10:27;1.10;99.90
24468;DHT22;12634;50.852;5.676;2024-01-07T12:12:54;1.00;99.90
24468;DHT22;12634;50.852;5.676;2024-01-07T12:15:23;1.00;99.90
24468;DHT22;12634;50.852;5.676;2024-01-07T12:17:58;1.10;99.90
24468;DHT22;12634;50.852;5.676;2024-01-07T12:20:27;1.10;99.90
24468;DHT22;12634;50.852;5.676;2024-01-07T12:22:57;1.00;99.90
24468;DHT22;12634;50.852;5.676;2024-01-07T12:25:31;1.00;99.90
24468;DHT22;12634;50.852;5.676;2024-01-07T12:27:59;1.00;99.90
24468;DHT22;12634;50.852;5.676;2024-01-07T12:30:26;0.90;99.90
24468;DHT22;12634;50.852;5.676;2024-01-07T12:32:53;0.90;99.90
24468;DHT22;12634;50.852;5.676;2024-01-07T12:35:25;1.00;99.90
24468;DHT22;12634;50.852;5.676;2024-01-07T12:37:52;1.00;99.90
24468;DHT22;12634;50.852;5.676;2024-01-07T12:40:19;1.00;99.90
24468;DHT22;12634;50.852;5.676;2024-01-07T12:42:47;1.00;99.90
24468;DHT22;12634;50.852;5.676;2024-01-07T12:45:15;1.10;99.90
24468;DHT22;12634;50.852;5.676;2024-01-07T12:47:42;1.10;99.90
24468;DHT22;12634;50.852;5.676;2024-01-07T12:50:10;1.00;99.90
24468;DHT22;12634;50.852;5.676;2024-01-07T12:52:39;1.00;99.90
24468;DHT22;12634;50.852;5.676;2024-01-07T12:55:07;1.10;99.90
24468;DHT22;12634;50.852;5.676;2024-01-07T12:57:34;1.10;99.90
24468;DHT22;12634;50.852;5.676;2024-01-07T13:00:03;1.10;99.90
24468;DHT22;12634;50.852;5.676;2024-01-07T13:02:32;1.10;99.90
24468;DHT22;12634;50.852;5.676;2024-01-07T13:05:00;1.10;99.90
24468;DHT22;12634;50.852;5.676;2024-01-07T13:07:27;1.20;99.90
24468;DHT22;12634;50.852;5.676;2024-01-07T13:09:56;1.10;99.90
24468;DHT22;12634;50.852;5.676;2024-01-07T13:12:23;1.10;99.90
24468;DHT22;12634;50.852;5.676;2024-01-07T13:14:50;1.10;99.90
24468;DHT22;12634;50.852;5.676;2024-01-07T13:17:17;1.10;99.90
24468;DHT22;12634;50.852;5.676;2024-01-07T13:19:44;1.20;99.90
24468;DHT22;12634;50.852;5.676;2024-01-07T13:22:11;1.20;99.90
24468;DHT22;12634;50.852;5.676;2024-01-07T13:24:39;1.10;99.90
24468;DHT22;12634;50.852;5.676;2024-01-07T13:27:08;1.10;99.90
24468;DHT22;12634;50.852;5.676;2024-01-07T13:29:35;1.10;99.90
24468;DHT22;12634;50.852;5.676;2024-01-07T13:32:03;1.00;99.90
24468;DHT22;12634;50.852;5.676;2024-01-07T13:34:30;1.00;99.90
24468;DHT22;12634;50.852;5.676;2024-01-07T13:36:57;1.00;99.90
24468;DHT22;12634;50.852;5.676;2024-01-07T13:39:24;1.00;99.90
24468;DHT22;12634;50.852;5.676;2024-01-07T13:41:51;1.00;99.90
24468;DHT22;12634;50.852;5.676;2024-01-07T13:44:21;1.00;99.90
24468;DHT22;12634;50.852;5.676;2024-01-07T13:46:48;1.00;99.90
24468;DHT22;12634;50.852;5.676;2024-01-07T13:49:18;1.00;99.90
24468;DHT22;12634;50.852;5.676;2024-01-07T13:51:45;1.00;99.90
24468;DHT22;12634;50.852;5.676;2024-01-07T13:54:12;1.00;99.90
24468;DHT22;12634;50.852;5.676;2024-01-07T13:56:40;1.00;99.90
24468;DHT22;12634;50.852;5.676;2024-01-07T13:59:09;1.00;99.90
24468;DHT22;12634;50.852;5.676;2024-01-07T14:01:38;1.00;99.90
24468;DHT22;12634;50.852;5.676;2024-01-07T14:04:08;1.10;99.90
24468;DHT22;12634;50.852;5.676;2024-01-07T14:06:35;1.00;99.90
24468;DHT22;12634;50.852;5.676;2024-01-07T14:09:02;0.90;99.90
24468;DHT22;12634;50.852;5.676;2024-01-07T14:11:29;0.90;99.90
24468;DHT22;12634;50.852;5.676;2024-01-07T14:13:56;0.90;99.90
24468;DHT22;12634;50.852;5.676;2024-01-07T14:16:24;0.90;99.90
24468;DHT22;12634;50.852;5.676;2024-01-07T14:18:52;0.80;99.90
24468;DHT22;12634;50.852;5.676;2024-01-07T14:21:19;0.80;99.90
24468;DHT22;12634;50.852;5.676;2024-01-07T14:23:47;0.80;99.90
24468;DHT22;12634;50.852;5.676;2024-01-07T14:26:14;0.90;99.90
24468;DHT22;12634;50.852;5.676;2024-01-07T14:28:42;0.90;99.90
24468;DHT22;12634;50.852;5.676;2024-01-07T14:31:09;0.80;99.90
24468;DHT22;12634;50.852;5.676;2024-01-07T14:33:36;0.80;99.90
24468;DHT22;12634;50.852;5.676;2024-01-07T14:36:05;0.70;99.90
24468;DHT22;12634;50.852;5.676;2024-01-07T14:38:35;0.70;99.90
24468;DHT22;12634;50.852;5.676;2024-01-07T14:41:02;0.70;99.90
24468;DHT22;12634;50.852;5.676;2024-01-07T14:43:29;0.60;99.90
24468;DHT22;12634;50.852;5.676;2024-01-07T14:45:56;0.60;99.90
24468;DHT22;12634;50.852;5.676;2024-01-07T14:48:23;0.50;99.90
24468;DHT22;12634;50.852;5.676;2024-01-07T14:50:50;0.50;99.90
24468;DHT22;12634;50.852;5.676;2024-01-07T14:53:19;0.50;99.90
24468;DHT22;12634;50.852;5.676;2024-01-07T14:55:46;0.40;99.90
24468;DHT22;12634;50.852;5.676;2024-01-07T14:58:13;0.40;99.90
24468;DHT22;12634;50.852;5.676;2024-01-07T15:00:40;0.30;99.90
24468;DHT22;12634;50.852;5.676;2024-01-07T15:03:08;0.30;99.90
24468;DHT22;12634;50.852;5.676;2024-01-07T15:05:35;0.20;99.90
24468;DHT22;12634;50.852;5.676;2024-01-07T15:08:02;0.20;99.90
24468;DHT22;12634;50.852;5.676;2024-01-07T15:10:31;0.10;99.90
24468;DHT22;12634;50.852;5.676;2024-01-07T15:12:58;0.10;99.90
24468;DHT22;12634;50.852;5.676;2024-01-07T15:15:25;0.10;99.90
24468;DHT22;12634;50.852;5.676;2024-01-07T15:17:55;0.00;99.90
24468;DHT22;12634;50.852;5.676;2024-01-07T15:20:22;0.00;99.90
24468;DHT22;12634;50.852;5.676;2024-01-07T15:22:50;0.00;99.90
24468;DHT22;12634;50.852;5.676;2024-01-07T15:25:18;0.00;99.90
24468;DHT22;12634;50.852;5.676;2024-01-07T15:27:47;0.00;99.90
24468;DHT22;12634;50.852;5.676;2024-01-07T15:30:14;0.00;99.90
24468;DHT22;12634;50.852;5.676;2024-01-07T15:32:41;0.00;99.90
24468;DHT22;12634;50.852;5.676;2024-01-07T15:35:08;0.10;99.90
24468;DHT22;12634;50.852;5.676;2024-01-07T15:37:35;0.00;99.90
24468;DHT22;12634;50.852;5.676;2024-01-07T15:40:03;0.00;99.90
24468;DHT22;12634;50.852;5.676;2024-01-07T15:42:30;0.00;99.90
24468;DHT22;12634;50.852;5.676;2024-01-07T15:44:59;0.00;99.90
24468;DHT22;12634;50.852;5.676;2024-01-07T15:47:26;0.00;99.90
24468;DHT22;12634;50.852;5.676;2024-01-07T15:49:54;0.00;99.90